createdAt,value
2023-05-07T00:53:43.396Z,3.70
2023-05-07T00:56:11.429Z,4.60
2023-05-07T00:58:39.400Z,5.75
2023-05-07T01:01:07.373Z,5.90
2023-05-07T01:03:35.190Z,4.68
2023-05-07T02:05:28.418Z,3.95
2023-05-07T02:07:55.977Z,6.53
2023-05-07T02:10:23.648Z,4.55
2023-05-07T02:12:51.375Z,3.97
2023-05-07T02:15:19.070Z,4.88
2023-05-07T02:18:01.084Z,6.70
2023-05-07T02:20:30.276Z,6.95
2023-05-07T02:22:57.838Z,4.68
2023-05-07T02:25:25.502Z,3.75
2023-05-07T02:27:53.071Z,4.95
2023-05-07T02:30:22.179Z,6.65
2023-05-07T02:32:49.768Z,6.60
2023-05-07T02:35:17.555Z,5.55
2023-05-07T02:37:46.432Z,6.22
2023-05-07T02:40:14.506Z,8.35
2023-05-07T02:42:42.094Z,5.78
2023-05-07T02:45:10.991Z,5.60
2023-05-07T02:47:38.640Z,5.55
2023-05-07T02:50:07.588Z,7.30
2023-05-07T02:52:35.112Z,6.10
2023-05-07T02:55:04.037Z,5.90
2023-05-07T02:57:31.563Z,6.93
2023-05-07T03:00:00.075Z,5.65
2023-05-07T03:02:27.628Z,5.55
2023-05-07T03:04:55.200Z,5.30
2023-05-07T03:07:22.697Z,4.93
2023-05-07T03:09:50.206Z,6.15
2023-05-07T03:12:19.057Z,5.10
2023-05-07T03:14:46.578Z,4.57
2023-05-07T03:17:14.102Z,4.68
2023-05-07T03:19:41.626Z,4.22
2023-05-07T03:22:09.322Z,4.57
2023-05-07T03:24:36.852Z,3.20
2023-05-07T03:27:04.352Z,6.78
2023-05-07T03:29:33.238Z,3.65
2023-05-07T03:32:00.812Z,3.55
2023-05-07T03:34:28.433Z,3.72
2023-05-07T03:36:56.834Z,5.93
2023-05-07T03:39:24.510Z,2.90
2023-05-07T03:41:52.031Z,4.57
2023-05-07T03:44:19.564Z,2.25
2023-05-07T03:46:48.461Z,5.50
2023-05-07T03:49:16.040Z,2.47
2023-05-07T03:51:43.540Z,3.22
2023-05-07T03:54:11.156Z,2.10
2023-05-07T03:56:38.662Z,3.95
2023-05-07T03:59:06.261Z,2.60
2023-05-07T04:01:33.840Z,2.75
2023-05-07T04:04:02.796Z,2.10
2023-05-07T04:06:30.431Z,2.42
2023-05-07T04:08:57.924Z,4.13
2023-05-07T04:11:25.975Z,6.00
2023-05-07T04:13:53.496Z,2.38
2023-05-07T04:16:21.100Z,3.00
2023-05-07T04:18:48.684Z,2.55
2023-05-07T04:21:18.462Z,6.07
2023-05-07T04:23:46.304Z,4.85
2023-05-07T04:26:13.844Z,2.97
2023-05-07T04:28:41.550Z,3.78
2023-05-07T04:31:09.660Z,2.92
2023-05-07T04:33:37.153Z,4.05
2023-05-07T04:36:05.771Z,2.47
2023-05-07T04:38:34.874Z,2.92
2023-05-07T04:41:06.364Z,3.00
2023-05-07T04:43:33.937Z,2.92
2023-05-07T04:46:01.450Z,3.80
2023-05-07T04:48:29.911Z,3.38
2023-05-07T04:50:57.463Z,3.40
2023-05-07T04:53:25.149Z,3.40
2023-05-07T04:55:59.193Z,3.10
2023-05-07T04:58:26.861Z,3.80
2023-05-07T05:00:54.374Z,3.10
2023-05-07T05:03:21.956Z,3.42
2023-05-07T05:11:13.742Z,4.20
2023-05-07T05:13:41.264Z,2.65
2023-05-07T05:16:08.970Z,3.95
2023-05-07T05:18:37.021Z,4.65
2023-05-07T05:21:04.883Z,4.20
2023-05-07T05:23:32.352Z,3.72
2023-05-07T05:26:00.463Z,2.90
2023-05-07T05:28:29.578Z,2.60
2023-05-07T05:30:57.460Z,3.88
2023-05-07T05:33:25.044Z,3.20
2023-05-07T05:35:52.545Z,3.45
2023-05-07T05:38:21.866Z,4.88
2023-05-07T05:40:49.400Z,4.40
2023-05-07T05:43:16.980Z,2.97
2023-05-07T05:45:45.910Z,3.97
2023-05-07T05:48:13.756Z,3.38
2023-05-07T05:50:41.301Z,3.30
2023-05-07T05:53:08.842Z,6.00
2023-05-07T05:55:36.541Z,2.50
2023-05-07T05:58:04.554Z,9.65
2023-05-07T06:00:32.320Z,3.15
2023-05-07T06:03:01.418Z,5.00
2023-05-07T06:05:29.099Z,3.70
2023-05-07T06:07:56.725Z,3.47
2023-05-07T06:10:25.323Z,3.47
2023-05-07T06:12:52.923Z,4.47
2023-05-07T06:15:20.732Z,3.30
2023-05-07T06:17:48.348Z,5.22
2023-05-07T06:20:17.316Z,2.90
2023-05-07T06:22:44.870Z,4.03
2023-05-07T06:25:12.950Z,3.10
2023-05-07T06:27:40.628Z,3.65
2023-05-07T06:30:09.436Z,4.82
2023-05-07T06:32:38.509Z,4.15
2023-05-07T06:35:06.797Z,3.33
2023-05-07T06:37:35.652Z,3.88
2023-05-07T06:40:03.205Z,4.13
2023-05-07T06:42:30.710Z,5.80
2023-05-07T06:44:58.298Z,3.78
2023-05-07T06:47:26.185Z,4.88
2023-05-07T06:49:53.774Z,3.72
2023-05-07T06:52:23.988Z,3.63
2023-05-07T06:54:53.138Z,3.67
2023-05-07T06:57:21.169Z,2.88
2023-05-07T06:59:48.727Z,4.90
2023-05-07T07:02:18.203Z,5.15
2023-05-07T07:04:46.187Z,2.90
2023-05-07T07:07:13.872Z,3.15
2023-05-07T07:09:41.402Z,3.15
2023-05-07T07:12:10.396Z,4.32
2023-05-07T07:14:37.946Z,2.42
2023-05-07T07:17:06.260Z,3.67
2023-05-07T07:19:33.854Z,2.97
2023-05-07T07:22:01.395Z,5.25
2023-05-07T07:24:28.927Z,2.75
2023-05-07T07:26:56.580Z,2.60
2023-05-07T07:29:27.520Z,3.38
2023-05-07T07:31:55.162Z,2.72
2023-05-07T07:34:22.765Z,3.22
2023-05-07T07:36:50.392Z,1.77
2023-05-07T07:39:17.949Z,2.10
2023-05-07T07:41:45.469Z,3.17
2023-05-07T07:44:15.978Z,3.97
2023-05-07T07:46:45.634Z,1.90
2023-05-07T07:49:13.197Z,4.10
2023-05-07T07:51:40.712Z,3.08
2023-05-07T07:54:08.359Z,1.60
2023-05-07T07:56:36.096Z,1.65
2023-05-07T07:59:03.977Z,2.33
2023-05-07T08:01:32.386Z,1.15
2023-05-07T08:04:01.486Z,1.40
2023-05-07T08:06:29.094Z,0.98
2023-05-07T08:08:57.138Z,2.25
2023-05-07T08:11:24.684Z,1.30
2023-05-07T08:13:52.230Z,1.02
2023-05-07T08:16:20.624Z,2.22
2023-05-07T08:18:48.870Z,1.20
2023-05-07T08:21:17.711Z,1.08
2023-05-07T08:23:45.678Z,0.98
2023-05-07T08:26:13.267Z,1.23
2023-05-07T08:28:40.909Z,2.55
2023-05-07T08:31:08.442Z,1.30
2023-05-07T08:33:36.068Z,1.30
2023-05-07T08:36:03.568Z,1.38
2023-05-07T08:38:33.071Z,1.20
2023-05-07T08:41:00.652Z,2.58
2023-05-07T08:43:29.251Z,2.00
2023-05-07T08:45:58.713Z,2.13
2023-05-07T08:48:27.671Z,1.60
2023-05-07T08:50:55.363Z,1.13
2023-05-07T08:53:23.024Z,0.95
2023-05-07T08:55:52.849Z,1.50
2023-05-07T08:58:20.624Z,2.28
2023-05-07T09:00:49.216Z,1.98
2023-05-07T09:03:17.284Z,2.65
2023-05-07T09:05:45.710Z,1.65
2023-05-07T09:08:17.218Z,0.93
2023-05-07T09:10:44.769Z,1.45
2023-05-07T09:13:15.389Z,1.38
2023-05-07T09:15:43.225Z,1.92
2023-05-07T09:18:10.760Z,1.70
2023-05-07T09:20:38.797Z,2.33
2023-05-07T09:23:06.486Z,1.40
2023-05-07T09:25:35.216Z,1.27
2023-05-07T09:28:03.412Z,1.55
2023-05-07T09:30:33.894Z,0.68
2023-05-07T09:33:03.666Z,1.08
2023-05-07T09:35:32.554Z,3.45
2023-05-07T09:38:03.853Z,1.85
2023-05-07T09:40:32.962Z,0.85
2023-05-07T09:43:11.233Z,0.70
2023-05-07T09:45:40.450Z,1.60
2023-05-07T09:48:08.696Z,1.08
2023-05-07T09:50:39.061Z,1.83
2023-05-07T09:53:06.828Z,1.33
2023-05-07T09:55:34.540Z,2.15
2023-05-07T09:58:03.690Z,1.02
2023-05-07T10:00:32.169Z,1.63
2023-05-07T10:03:03.291Z,1.40
2023-05-07T10:05:30.974Z,2.10
2023-05-07T10:07:59.058Z,0.90
2023-05-07T10:10:27.142Z,1.02
2023-05-07T10:12:56.104Z,1.80
2023-05-07T10:15:25.574Z,1.27
2023-05-07T10:17:55.397Z,1.10
2023-05-07T10:20:26.982Z,1.83
2023-05-07T10:22:57.799Z,0.88
2023-05-07T10:25:30.513Z,2.15
2023-05-07T10:28:02.940Z,2.90
2023-05-07T10:30:42.038Z,1.30
2023-05-07T10:33:12.962Z,3.35
2023-05-07T10:35:43.546Z,1.08
2023-05-07T10:38:11.850Z,1.83
2023-05-07T10:40:39.528Z,0.82
2023-05-07T10:43:10.649Z,3.03
2023-05-07T10:45:38.608Z,2.05
2023-05-07T10:48:25.075Z,2.83
2023-05-07T10:51:21.005Z,1.15
2023-05-07T10:53:48.505Z,1.55
2023-05-07T10:56:28.292Z,1.20
2023-05-07T10:58:55.826Z,0.90
2023-05-07T11:01:52.070Z,1.48
2023-05-07T11:04:25.562Z,1.52
2023-05-07T11:07:31.834Z,1.83
2023-05-07T11:10:07.450Z,1.20
2023-05-07T11:12:55.162Z,4.15
2023-05-07T11:15:50.190Z,1.42
2023-05-07T11:18:19.218Z,4.60
2023-05-07T11:20:55.590Z,3.05
2023-05-07T11:24:08.929Z,2.33
2023-05-07T11:26:56.113Z,2.10
2023-05-07T11:29:23.997Z,2.00
2023-05-07T11:31:52.446Z,3.33
2023-05-07T11:34:24.601Z,3.85
2023-05-07T11:39:30.990Z,1.65
2023-05-07T11:42:00.220Z,1.40
2023-05-07T11:44:41.189Z,1.67
2023-05-07T11:47:09.098Z,1.92
2023-05-07T11:49:36.703Z,1.38
2023-05-07T11:52:06.147Z,1.10
2023-05-07T11:54:37.729Z,1.95
2023-05-07T11:57:06.749Z,1.02
2023-05-07T11:59:40.996Z,2.42
2023-05-07T12:02:08.788Z,1.20
2023-05-07T12:04:36.439Z,1.40
2023-05-07T12:07:03.943Z,1.70
2023-05-07T12:09:31.504Z,0.98
2023-05-07T12:11:59.048Z,0.60
2023-05-07T12:14:31.249Z,7.53
2023-05-07T12:16:59.141Z,2.50
2023-05-07T12:19:27.046Z,2.30
2023-05-07T12:21:54.606Z,1.05
2023-05-07T12:24:22.288Z,1.77
2023-05-07T12:26:50.135Z,1.13
2023-05-07T12:29:17.697Z,1.02
2023-05-07T12:31:46.652Z,2.10
2023-05-07T12:34:14.275Z,1.50
2023-05-07T12:36:42.507Z,1.27
2023-05-07T12:39:10.926Z,4.15
2023-05-07T12:41:54.298Z,1.33
2023-05-07T12:44:24.440Z,1.60
2023-05-07T12:46:53.629Z,1.92
2023-05-07T12:49:23.755Z,1.50
2023-05-07T12:51:52.872Z,0.93
2023-05-07T12:54:30.004Z,0.60
2023-05-07T12:57:02.809Z,2.15
2023-05-07T12:59:34.506Z,0.70
2023-05-07T13:02:03.508Z,2.05
2023-05-07T13:04:31.073Z,3.03
2023-05-07T13:06:58.709Z,4.22
2023-05-07T13:09:26.319Z,1.80
2023-05-07T13:11:53.832Z,0.63
2023-05-07T13:14:21.821Z,0.80
2023-05-07T13:16:49.696Z,0.93
2023-05-07T13:19:18.812Z,2.10
2023-05-07T13:21:46.323Z,0.80
2023-05-07T13:24:13.822Z,3.92
2023-05-07T13:26:41.361Z,6.45
2023-05-07T13:29:08.937Z,4.22
2023-05-07T13:31:36.704Z,2.60
2023-05-07T13:34:04.300Z,15.27
2023-05-07T13:36:36.405Z,7.93
2023-05-07T13:41:31.553Z,1.75
2023-05-07T13:43:59.078Z,0.85
2023-05-07T13:46:26.723Z,2.05
2023-05-07T13:48:54.275Z,2.17
2023-05-07T13:51:22.519Z,1.38
2023-05-07T13:53:51.375Z,1.13
2023-05-07T13:56:18.902Z,1.65
2023-05-07T13:58:58.865Z,1.58
2023-05-07T14:01:28.068Z,1.60
2023-05-07T14:03:56.218Z,1.42
2023-05-07T14:06:24.968Z,3.67
2023-05-07T14:08:54.285Z,1.50
2023-05-07T14:11:22.305Z,4.18
2023-05-07T14:13:49.932Z,3.35
2023-05-07T14:16:17.601Z,1.30
2023-05-07T14:18:45.508Z,2.53
2023-05-07T14:21:13.192Z,1.30
2023-05-07T14:23:40.915Z,7.97
2023-05-07T14:26:09.783Z,5.93
2023-05-07T14:28:40.474Z,3.72
2023-05-07T14:31:08.303Z,19.17
2023-05-07T14:33:36.034Z,18.48
2023-05-07T14:36:04.535Z,11.07
2023-05-07T14:38:33.845Z,46.60
2023-05-07T14:41:02.847Z,20.23
2023-05-07T14:43:32.506Z,21.30
2023-05-07T14:46:00.795Z,29.95
2023-05-07T14:48:28.891Z,49.03
2023-05-07T14:50:57.381Z,42.22
2023-05-07T14:53:25.449Z,41.92
2023-05-07T14:55:52.965Z,47.17
2023-05-07T14:58:20.588Z,48.95
2023-05-07T15:00:49.551Z,21.48
2023-05-07T15:03:17.271Z,47.13
2023-05-07T15:05:44.867Z,12.98
2023-05-07T15:08:12.376Z,61.38
2023-05-07T15:10:42.235Z,34.72
2023-05-07T15:13:12.648Z,4.88
2023-05-07T15:18:11.155Z,1.70
2023-05-07T15:20:39.068Z,3.67
2023-05-07T15:23:10.708Z,2.88
2023-05-07T15:25:38.921Z,3.08
2023-05-07T15:28:06.772Z,1.73
2023-05-07T15:30:35.026Z,1.95
2023-05-07T15:33:03.358Z,2.97
2023-05-07T15:35:32.669Z,1.77
2023-05-07T15:38:00.253Z,1.77
2023-05-07T15:40:27.912Z,1.90
2023-05-07T15:42:57.498Z,2.35
2023-05-07T15:45:25.805Z,2.15
2023-05-07T15:47:53.386Z,1.95
2023-05-07T15:50:22.545Z,2.35
2023-05-07T15:52:51.468Z,1.42
2023-05-07T15:55:19.095Z,2.38
2023-05-07T15:57:47.701Z,3.08
2023-05-07T16:00:17.319Z,1.92
2023-05-07T16:02:45.130Z,2.17
2023-05-07T16:05:13.770Z,1.73
2023-05-07T16:07:44.062Z,1.23
2023-05-07T16:10:13.355Z,1.10
2023-05-07T16:12:41.059Z,1.55
2023-05-07T16:15:09.622Z,2.97
2023-05-07T16:17:37.276Z,1.52
2023-05-07T16:20:06.363Z,0.90
2023-05-07T16:22:34.064Z,1.52
2023-05-07T16:25:02.468Z,2.33
2023-05-07T16:27:31.334Z,2.25
2023-05-07T16:29:59.014Z,1.25
2023-05-07T16:32:28.377Z,3.95
2023-05-07T16:34:55.994Z,0.80
2023-05-07T16:37:23.572Z,2.33
2023-05-07T16:39:51.100Z,1.70
2023-05-07T16:42:19.688Z,2.35
2023-05-07T16:44:48.597Z,1.35
2023-05-07T16:47:16.403Z,1.85
2023-05-07T16:49:43.960Z,1.00
2023-05-07T16:52:11.499Z,3.80
2023-05-07T16:54:39.031Z,2.83
2023-05-07T16:57:06.588Z,1.73
2023-05-07T16:59:34.121Z,1.20
2023-05-07T17:02:03.061Z,1.10
2023-05-07T17:04:32.401Z,2.58
2023-05-07T17:06:59.993Z,1.25
2023-05-07T17:09:28.136Z,1.90
2023-05-07T17:11:55.644Z,0.63
2023-05-07T17:14:23.179Z,1.50
2023-05-07T17:16:51.221Z,1.38
2023-05-07T17:19:20.154Z,1.38
2023-05-07T17:21:47.685Z,3.72
2023-05-07T17:24:15.223Z,1.75
2023-05-07T17:26:43.092Z,3.58
2023-05-07T17:29:10.978Z,2.40
2023-05-07T17:31:38.528Z,1.95
2023-05-07T17:34:06.547Z,2.15
2023-05-07T17:36:35.590Z,2.17
2023-05-07T17:39:03.467Z,1.00
2023-05-07T17:41:30.961Z,1.10
2023-05-07T17:43:58.520Z,0.82
2023-05-07T17:46:26.408Z,1.67
2023-05-07T17:48:54.913Z,1.88
2023-05-07T17:51:22.507Z,3.17
2023-05-07T17:53:51.462Z,1.30
2023-05-07T17:56:19.021Z,1.25
2023-05-07T17:58:58.861Z,1.45
2023-05-07T18:01:27.054Z,2.15
2023-05-07T18:03:54.865Z,1.75
2023-05-07T18:06:23.479Z,1.65
2023-05-07T18:08:54.604Z,2.28
2023-05-07T18:11:22.845Z,1.70
2023-05-07T18:13:50.759Z,1.95
2023-05-07T18:16:19.301Z,3.22
2023-05-07T18:18:46.965Z,2.03
2023-05-07T18:21:18.744Z,2.05
2023-05-07T18:23:46.355Z,2.55
2023-05-07T18:26:15.782Z,1.70
2023-05-07T18:28:44.147Z,1.40
2023-05-07T18:31:12.952Z,2.25
2023-05-07T18:33:41.697Z,1.30
2023-05-07T18:36:10.540Z,2.80
2023-05-07T18:38:39.218Z,1.50
2023-05-07T18:41:10.448Z,3.58
2023-05-07T18:43:39.612Z,9.85
2023-05-07T18:46:07.549Z,6.43
2023-05-07T18:48:35.675Z,3.95
2023-05-07T18:51:04.776Z,2.15
2023-05-07T18:53:33.018Z,2.80
2023-05-07T18:56:01.460Z,2.10
2023-05-07T18:58:29.779Z,2.17
2023-05-07T19:00:59.289Z,1.70
2023-05-07T19:03:27.333Z,1.50
2023-05-07T19:05:56.019Z,2.03
2023-05-07T19:08:24.116Z,3.28
2023-05-07T19:10:52.428Z,2.22
2023-05-07T19:13:21.034Z,3.17
2023-05-07T19:15:49.527Z,2.10
2023-05-07T19:18:19.587Z,3.15
2023-05-07T19:20:50.024Z,4.03
2023-05-07T19:23:20.373Z,3.05
2023-05-07T19:25:50.072Z,3.13
2023-05-07T19:28:18.216Z,2.53
2023-05-07T19:30:47.250Z,2.58
2023-05-07T19:33:15.481Z,4.63
2023-05-07T19:35:45.434Z,2.60
2023-05-07T19:38:13.633Z,3.75
2023-05-07T19:40:42.424Z,2.78
2023-05-07T19:43:10.634Z,2.63
2023-05-07T19:45:42.950Z,3.13
2023-05-07T19:48:11.246Z,4.82
2023-05-07T19:50:39.808Z,5.95
2023-05-07T19:53:09.435Z,2.10
2023-05-07T19:55:37.769Z,3.10
2023-05-07T19:58:06.024Z,4.65
2023-05-07T20:00:34.181Z,3.22
2023-05-07T20:03:02.365Z,5.20
2023-05-07T20:05:30.644Z,3.13
2023-05-07T20:08:00.330Z,2.50
2023-05-07T20:10:30.212Z,2.33
2023-05-07T20:12:58.367Z,4.45
2023-05-07T20:15:26.604Z,3.10
2023-05-07T20:17:55.033Z,3.95
2023-05-07T20:20:24.617Z,2.97
2023-05-07T20:22:53.879Z,5.13
2023-05-07T20:25:22.114Z,2.72
2023-05-07T20:27:51.989Z,3.90
2023-05-07T20:30:20.637Z,3.92
2023-05-07T20:32:48.844Z,6.75
2023-05-07T20:35:16.870Z,11.55
2023-05-07T20:37:45.291Z,12.60
2023-05-07T20:40:14.276Z,12.70
2023-05-07T20:42:43.050Z,9.90
2023-05-07T20:45:13.290Z,6.38
2023-05-07T20:47:41.450Z,3.58
2023-05-07T20:50:11.025Z,4.68
2023-05-07T20:52:40.007Z,3.42
2023-05-07T20:55:09.510Z,3.10
2023-05-07T20:57:37.967Z,4.10
2023-05-07T21:00:07.937Z,3.28
2023-05-07T21:02:37.833Z,4.28
2023-05-07T21:05:06.078Z,4.55
2023-05-07T21:07:33.637Z,3.92
2023-05-07T21:10:01.177Z,3.47
2023-05-07T21:12:28.782Z,4.95
2023-05-07T21:14:57.385Z,4.68
2023-05-07T21:17:25.097Z,4.82
2023-05-07T21:19:54.215Z,4.05
2023-05-07T21:22:21.884Z,5.10
2023-05-07T21:24:49.417Z,4.50
2023-05-07T21:27:17.020Z,4.00
2023-05-07T21:29:44.913Z,4.00
2023-05-07T21:32:12.562Z,4.03
2023-05-07T21:34:40.228Z,4.15
2023-05-07T21:37:09.148Z,3.20
2023-05-07T21:39:36.797Z,6.03
2023-05-07T21:42:04.634Z,4.75
2023-05-07T21:44:32.406Z,3.53
2023-05-07T21:46:59.922Z,4.18
2023-05-07T21:49:27.516Z,4.50
2023-05-07T21:51:55.288Z,5.32
2023-05-07T21:54:24.651Z,4.43
2023-05-07T21:56:52.209Z,5.47
2023-05-07T21:59:19.715Z,5.45
2023-05-07T22:01:47.441Z,4.18
2023-05-07T22:04:14.932Z,3.65
2023-05-07T22:06:42.521Z,4.68
2023-05-07T22:09:10.607Z,4.03
2023-05-07T22:11:39.503Z,3.63
2023-05-07T22:14:07.113Z,3.97
2023-05-07T22:16:35.181Z,4.88
2023-05-07T22:19:02.904Z,3.10
2023-05-07T22:21:31.600Z,2.67
2023-05-07T22:23:59.224Z,2.90
2023-05-07T22:26:27.425Z,3.17
2023-05-07T22:28:56.667Z,2.75
2023-05-07T22:31:24.359Z,4.03
2023-05-07T22:33:52.151Z,3.92
2023-05-07T22:36:19.730Z,4.30
2023-05-07T22:38:47.295Z,4.18
2023-05-07T22:41:14.833Z,5.18
2023-05-07T22:43:42.358Z,4.97
2023-05-07T22:46:11.381Z,4.68
2023-05-07T22:48:38.974Z,3.35
2023-05-07T22:51:06.542Z,4.30
2023-05-07T22:53:34.088Z,4.20
2023-05-07T22:56:06.291Z,4.85
2023-05-07T22:58:34.068Z,3.55
2023-05-07T23:01:02.378Z,4.00
2023-05-07T23:03:32.191Z,5.75
2023-05-07T23:05:59.740Z,3.35
2023-05-07T23:08:27.370Z,3.25
2023-05-07T23:10:54.922Z,3.80
2023-05-07T23:13:22.561Z,5.47
2023-05-07T23:15:50.730Z,3.78
2023-05-07T23:18:18.786Z,5.18
2023-05-07T23:20:47.694Z,4.57
2023-05-07T23:23:15.244Z,4.43
2023-05-07T23:25:42.766Z,4.80
2023-05-07T23:28:10.802Z,4.03
2023-05-07T23:30:38.368Z,4.30
2023-05-07T23:33:06.061Z,4.30
2023-05-07T23:35:33.756Z,3.83
2023-05-07T23:38:02.721Z,4.95
2023-05-07T23:40:30.269Z,4.05
2023-05-07T23:42:57.876Z,4.90
2023-05-07T23:45:25.730Z,5.03
2023-05-07T23:47:53.434Z,5.82
2023-05-07T23:50:21.452Z,3.97
2023-05-07T23:52:48.998Z,3.47
2023-05-07T23:55:18.154Z,3.10
2023-05-07T23:57:45.647Z,3.08
